Home > Products > Valid Products > MTR

000
SAUS43 KDLH 191457
MTRGNA
METAR KGNA 191456Z AUTO 05010G17KT 03/02 A2983 RMK AO1 SLP108 P0013
60041 T00330017 58025





000
SAUS43 KDLH 191357
MTRGNA
METAR KGNA 191356Z AUTO 06011KT 03/02 A2988 RMK AO1 SLP125 P0016
T00330017





000
SAUS43 KDLH 191357
MTRGNA
METAR KGNA 191356Z AUTO 06011KT 03/02 A2988 RMK AO1 SLP125 P0016
T00330017





000
SAUS43 KDLH 191257
MTRGNA
METAR KGNA 191256Z AUTO 06009KT 03/01 A2989 RMK AO1 SLP130 P0012
T00330011





000
SAUS43 KDLH 191257
MTRGNA
METAR KGNA 191256Z AUTO 06009KT 03/01 A2989 RMK AO1 SLP130 P0012
T00330011





000
SAUS43 KDLH 191157
MTRGNA
METAR KGNA 191156Z AUTO 06009KT 03/00 A2990 RMK AO1 SLP135 P0007
60007 70007 T00330000 10056 20033 56032





000
SAUS43 KDLH 191157
MTRGNA
METAR KGNA 191156Z AUTO 06009KT 03/00 A2990 RMK AO1 SLP135 P0007
60007 70007 T00330000 10056 20033 56032





000
SAUS43 KDLH 191057
MTRGNA
METAR KGNA 191056Z AUTO 07009G18KT 04/M02 A2994 RMK AO1 SLP147
T00441022





000
SAUS43 KDLH 191057
MTRGNA
METAR KGNA 191056Z AUTO 07009G18KT 04/M02 A2994 RMK AO1 SLP147
T00441022





000
SAUS43 KDLH 190957
MTRGNA
METAR KGNA 190956Z AUTO 06012KT 05/M03 A2995 RMK AO1 SLP150
T00501028





000
SAUS43 KDLH 190957
MTRGNA
METAR KGNA 190956Z AUTO 06012KT 05/M03 A2995 RMK AO1 SLP150
T00501028





000
SAUS43 KDLH 190857
MTRGNA
METAR KGNA 190856Z AUTO 06010KT 05/M03 A3000 RMK AO1 SLP166
T00501028 57025





000
SAUS43 KDLH 190757
MTRGNA
METAR KGNA 190756Z AUTO 05012G19KT 05/M03 A3002 RMK AO1 SLP174
T00501033





000
SAUS43 KDLH 190657
MTRGNA
METAR KGNA 190656Z AUTO 06015G23KT 05/M03 A3005 RMK AO1 SLP184
T00501033





000
SAUS43 KDLH 190657
MTRGNA
METAR KGNA 190656Z AUTO 06015G23KT 05/M03 A3005 RMK AO1 SLP184
T00501033





000
SAUS43 KDLH 190557
MTRGNA
METAR KGNA 190556Z AUTO 06015G20KT 05/M03 A3008 RMK AO1 SLP192
T00501033 10072 20044 400781006 56010





000
SAUS43 KDLH 190557
MTRGNA
METAR KGNA 190556Z AUTO 06015G20KT 05/M03 A3008 RMK AO1 SLP192
T00501033 10072 20044 400781006 56010





000
SAUS43 KDLH 190457
MTRGNA
METAR KGNA 190456Z AUTO 05014G22KT 06/M04 A3008 RMK AO1 SLP192
T00561044





000
SAUS43 KDLH 190457
MTRGNA
METAR KGNA 190456Z AUTO 05014G22KT 06/M04 A3008 RMK AO1 SLP192
T00561044





000
SAUS43 KDLH 190357
MTRGNA
METAR KGNA 190356Z AUTO 05015G21KT 07/M06 A3009 RMK AO1 SLP193
T00671061





000
SAUS43 KDLH 190257
MTRGNA
METAR KGNA 190256Z AUTO 06014G20KT 07/M06 A3011 RMK AO1 SLP202
T00671056 56014





000
SAUS43 KDLH 190157
MTRGNA
METAR KGNA 190156Z AUTO 06013KT 07/M06 A3012 RMK AO1 SLP207
T00721061





000
SAUS43 KDLH 190057
MTRGNA
METAR KGNA 190056Z AUTO 06007KT 06/M03 A3013 RMK AO1 SLP212
T00561028





000
SAUS43 KDLH 190057
MTRGNA
METAR KGNA 190056Z AUTO 06007KT 06/M03 A3013 RMK AO1 SLP212
T00561028





000
SAUS43 KDLH 182357
MTRGNA
METAR KGNA 182356Z AUTO 06011G19KT 04/M02 A3015 RMK AO1 SLP218
T00441017 10056 20044 58026





000
SAUS43 KDLH 182357
MTRGNA
METAR KGNA 182356Z AUTO 06011G19KT 04/M02 A3015 RMK AO1 SLP218
T00441017 10056 20044 58026





000
SAUS43 KDLH 182257
MTRGNA
METAR KGNA 182256Z AUTO 06012G19KT 05/M01 A3018 RMK AO1 SLP228
T00501011





000
SAUS43 KDLH 182157
MTRGNA
METAR KGNA 182156Z AUTO 07008KT 04/00 A3021 RMK AO1 SLP237 T00440000





000
SAUS43 KDLH 182057
MTRGNA
METAR KGNA 182056Z AUTO 06007KT 05/00 A3023 RMK AO1 SLP244 T00500000
56019





000
SAUS43 KDLH 181957
MTRGNA
METAR KGNA 181956Z AUTO 07009KT 04/00 A3024 RMK AO1 SLP248 T00440000





000
SAUS43 KDLH 181957
MTRGNA
METAR KGNA 181956Z AUTO 07009KT 04/00 A3024 RMK AO1 SLP248 T00440000





000
SAUS43 KDLH 181857
MTRGNA
METAR KGNA 181856Z AUTO 07010KT 05/00 A3026 RMK AO1 SLP255 T00500000





000
SAUS43 KDLH 181757
MTRGNA
METAR KGNA 181756Z AUTO 06008KT 05/00 A3028 RMK AO1 SLP261 T00500000
10061 20017 58001





000
SAUS43 KDLH 181757
MTRGNA
METAR KGNA 181756Z AUTO 06008KT 05/00 A3028 RMK AO1 SLP261 T00500000
10061 20017 58001





000
SAUS43 KDLH 181657
MTRGNA
METAR KGNA 181656Z AUTO 06007KT 06/00 A3030 RMK AO1 SLP264 T00560000





000
SAUS43 KDLH 181657
MTRGNA
METAR KGNA 181656Z AUTO 06007KT 06/00 A3030 RMK AO1 SLP264 T00560000





000
SAUS43 KDLH 181557
MTRGNA
METAR KGNA 181556Z AUTO 07005KT 06/00 A3030 RMK AO1 SLP263 T00610000





000
SAUS43 KDLH 181457
MTRGNA
METAR KGNA 181456Z AUTO 16003KT 04/01 A3029 RMK AO1 SLP260 T00440006
53011





000
SAUS43 KDLH 181357
MTRGNA
METAR KGNA 181356Z AUTO 17005KT 04/01 A3027 RMK AO1 SLP258 T00390006





000
SAUS43 KDLH 181257
MTRGNA
METAR KGNA 181256Z AUTO 25003KT 02/00 A3026 RMK AO1 SLP257 T00220000





000
SAUS43 KDLH 181257
MTRGNA
METAR KGNA 181256Z AUTO 25003KT 02/00 A3026 RMK AO1 SLP257 T00220000





000
SAUS43 KDLH 181157
MTRGNA
METAR KGNA 181156Z AUTO 00000KT 02/M01 A3025 RMK AO1 SLP252
T00171006 10078 21006 53021





000
SAUS43 KDLH 181157
MTRGNA
METAR KGNA 181156Z AUTO 00000KT 02/M01 A3025 RMK AO1 SLP252
T00171006 10078 21006 53021





000
SAUS43 KDLH 181057
MTRGNA
METAR KGNA 181056Z AUTO 00000KT 02/M01 A3024 RMK AO1 SLP248
T00221011





000
SAUS43 KDLH 181057
MTRGNA
METAR KGNA 181056Z AUTO 00000KT 02/M01 A3024 RMK AO1 SLP248
T00221011





000
SAUS43 KDLH 180957
MTRGNA
METAR KGNA 180956Z AUTO 06006KT 04/M01 A3019 RMK AO1 SLP230
T00441011





000
SAUS43 KDLH 180857
MTRGNA
METAR KGNA 180856Z AUTO VRB06KT 05/M01 A3019 RMK AO1 SLP229
T00501011 51018





000
SAUS43 KDLH 180757
MTRGNA
METAR KGNA 180756Z AUTO 06004KT 04/M01 A3018 RMK AO1 SLP226
T00441006





000
SAUS43 KDLH 180757
MTRGNA
METAR KGNA 180756Z AUTO 06004KT 04/M01 A3018 RMK AO1 SLP226
T00441006





000
SAUS43 KDLH 180657
MTRGNA
METAR KGNA 180656Z AUTO 15006KT 06/M01 A3017 RMK AO1 SLP224
T00611006





000
SAUS43 KDLH 180557
MTRGNA
METAR KGNA 180556Z AUTO 00000KT 08/M01 A3014 RMK AO1 SLP210
T00781011 10150 20039 401500039 51052





000
SAUS43 KDLH 180557
MTRGNA
METAR KGNA 180556Z AUTO 00000KT 08/M01 A3014 RMK AO1 SLP210
T00781011 10150 20039 401500039 51052





000
SAUS43 KDLH 180457
MTRGNA
METAR KGNA 180456Z AUTO 36005KT 10/M01 A3009 RMK AO1 SLP195
T01001006





000
SAUS43 KDLH 180357
MTRGNA
METAR KGNA 180356Z AUTO VRB06G14KT 12/M01 A3004 RMK AO1 SLP176
T01221011





000
SAUS43 KDLH 180357
MTRGNA
METAR KGNA 180356Z AUTO VRB06G14KT 12/M01 A3004 RMK AO1 SLP176
T01221011





000
SAUS43 KDLH 180257
MTRGNA
METAR KGNA 180256Z AUTO 01009G16KT 14/M04 A2998 RMK AO1 SLP154
T01441044 53020





000
SAUS43 KDLH 180157
MTRGNA
METAR KGNA 180156Z AUTO 00000KT 07/01 A2995 RMK AO1 SLP145 T00670006





000
SAUS43 KDLH 180157
MTRGNA
METAR KGNA 180156Z AUTO 00000KT 07/01 A2995 RMK AO1 SLP145 T00670006





000
SAUS43 KDLH 180057
MTRGNA
METAR KGNA 180056Z AUTO 24005KT 05/01 A2992 RMK AO1 SLP136 T00500011





000
SAUS43 KDLH 172357
MTRGNA
METAR KGNA 172356Z AUTO 24004KT 07/01 A2992 RMK AO1 SLP136 T00720006
10094 20050 56012





000
SAUS43 KDLH 172357
MTRGNA
METAR KGNA 172356Z AUTO 24004KT 07/01 A2992 RMK AO1 SLP136 T00720006
10094 20050 56012





000
SAUS43 KDLH 172257
MTRGNA
METAR KGNA 172256Z AUTO 24004KT 07/01 A2993 RMK AO1 SLP138 T00720011





000
SAUS43 KDLH 172157
MTRGNA
METAR KGNA 172156Z AUTO 24009KT 08/01 A2994 RMK AO1 SLP144 T00780011





000
SAUS43 KDLH 172157
MTRGNA
METAR KGNA 172156Z AUTO 24009KT 08/01 A2994 RMK AO1 SLP144 T00780011





000
SAUS43 KDLH 172057
MTRGNA
METAR KGNA 172056Z AUTO 24007KT 08/02 A2996 RMK AO1 SLP147 T00830017
58032





000
SAUS43 KDLH 172057
MTRGNA
METAR KGNA 172056Z AUTO 24007KT 08/02 A2996 RMK AO1 SLP147 T00830017
58032





000
SAUS43 KDLH 171957
MTRGNA
METAR KGNA 171956Z AUTO 24007KT 06/02 A3000 RMK AO1 SLP163 T00560022





000
SAUS43 KDLH 171957
MTRGNA
METAR KGNA 171956Z AUTO 24007KT 06/02 A3000 RMK AO1 SLP163 T00560022





000
SAUS43 KDLH 171857
MTRGNA
METAR KGNA 171856Z AUTO 24007KT 05/02 A3003 RMK AO1 SLP175 T00500017





000
SAUS43 KDLH 171757
MTRGNA
METAR KGNA 171756Z AUTO 24006KT 06/02 A3005 RMK AO1 SLP183 T00610022
10133 20044 58018





000
SAUS43 KDLH 171657
MTRGNA
METAR KGNA 171656Z AUTO 24007KT 06/02 A3007 RMK AO1 SLP190 T00560017





000
SAUS43 KDLH 171657
MTRGNA
METAR KGNA 171656Z AUTO 24007KT 06/02 A3007 RMK AO1 SLP190 T00560017





000
SAUS43 KDLH 171557
MTRGNA
METAR KGNA 171556Z AUTO 24005KT 06/02 A3010 RMK AO1 SLP198 T00610017





000
SAUS43 KDLH 171457
MTRGNA
METAR KGNA 171456Z AUTO 23006KT 06/01 A3011 RMK AO1 SLP201 T00560011
50006





000
SAUS43 KDLH 171457
MTRGNA
METAR KGNA 171456Z AUTO 23006KT 06/01 A3011 RMK AO1 SLP201 T00560011
50006





000
SAUS43 KDLH 171357
MTRGNA
METAR KGNA 171356Z AUTO 00000KT 08/M01 A3011 RMK AO1 SLP201
T00781006





000
SAUS43 KDLH 171257
MTRGNA
METAR KGNA 171256Z AUTO 34004KT 12/M01 A3011 RMK AO1 SLP199
T01171006





000
SAUS43 KDLH 171257
MTRGNA
METAR KGNA 171256Z AUTO 34004KT 12/M01 A3011 RMK AO1 SLP199
T01171006





000
SAUS43 KDLH 171157
MTRGNA
METAR KGNA 171156Z AUTO 35006KT 09/M01 A3009 RMK AO1 SLP193
T00891006 10094 20050 51012





000
SAUS43 KDLH 171157
MTRGNA
METAR KGNA 171156Z AUTO 35006KT 09/M01 A3009 RMK AO1 SLP193
T00891006 10094 20050 51012





000
SAUS43 KDLH 171057
MTRGNA
METAR KGNA 171056Z AUTO 35008KT 08/01 A3008 RMK AO1 SLP191 T00780006





000
SAUS43 KDLH 170957
MTRGNA
METAR KGNA 170956Z AUTO 34008KT 09/01 A3007 RMK AO1 SLP187 T00890011





000
SAUS43 KDLH 170857
MTRGNA
METAR KGNA 170856Z AUTO 34008KT 09/03 A3005 RMK AO1 SLP181 T00940028
51009





000
SAUS43 KDLH 170857
MTRGNA
METAR KGNA 170856Z AUTO 34008KT 09/03 A3005 RMK AO1 SLP181 T00940028
51009





000
SAUS43 KDLH 170757
MTRGNA
METAR KGNA 170756Z AUTO 04004KT 07/03 A3005 RMK AO1 SLP180 T00720028





000
SAUS43 KDLH 170657
MTRGNA
METAR KGNA 170656Z AUTO 00000KT 06/03 A3004 RMK AO1 SLP180 T00610028





000
SAUS43 KDLH 170557
MTRGNA
METAR KGNA 170556Z AUTO 25004KT 06/02 A3002 RMK AO1 SLP173 T00560022
10072 20033 400780017 53006





000
SAUS43 KDLH 170557
MTRGNA
METAR KGNA 170556Z AUTO 25004KT 06/02 A3002 RMK AO1 SLP173 T00560022
10072 20033 400780017 53006





000
SAUS43 KDLH 170457
MTRGNA
METAR KGNA 170456Z AUTO 25005KT 06/01 A3001 RMK AO1 SLP169 T00610011





000
SAUS43 KDLH 170357
MTRGNA
METAR KGNA 170356Z AUTO 00000KT 05/01 A3001 RMK AO1 SLP168 T00500006





000
SAUS43 KDLH 170257
MTRGNA
METAR KGNA 170256Z AUTO 28004KT 05/M01 A3001 RMK AO1 SLP166
T00501011 53009





000
SAUS43 KDLH 170157
MTRGNA
METAR KGNA 170156Z AUTO 00000KT 06/01 A2999 RMK AO1 SLP162 T00610006





000
SAUS43 KDLH 170157
MTRGNA
METAR KGNA 170156Z AUTO 00000KT 06/01 A2999 RMK AO1 SLP162 T00610006





000
SAUS43 KDLH 170057
MTRGNA
METAR KGNA 170056Z AUTO 23006KT 04/M01 A2999 RMK AO1 SLP162
T00441006





000
SAUS43 KDLH 170057
MTRGNA
METAR KGNA 170056Z AUTO 23006KT 04/M01 A2999 RMK AO1 SLP162
T00441006





000
SAUS43 KDLH 162357
MTRGNA
METAR KGNA 162356Z AUTO VRB03KT 06/M01 A2998 RMK AO1 SLP159
T00611011 10078 20039 56002





000
SAUS43 KDLH 162357
MTRGNA
METAR KGNA 162356Z AUTO VRB03KT 06/M01 A2998 RMK AO1 SLP159
T00611011 10078 20039 56002





000
SAUS43 KDLH 162257
MTRGNA
METAR KGNA 162256Z AUTO 00000KT 06/M01 A2998 RMK AO1 SLP160
T00561006





000
SAUS43 KDLH 162257
MTRGNA
METAR KGNA 162256Z AUTO 00000KT 06/M01 A2998 RMK AO1 SLP160
T00561006





000
SAUS43 KDLH 162157
MTRGNA
METAR KGNA 162156Z AUTO 26003KT 07/M02 A2998 RMK AO1 SLP158
T00721017





000
SAUS43 KDLH 162057
MTRGNA
METAR KGNA 162056Z AUTO 24004KT 06/00 A2999 RMK AO1 SLP161 T00610000
58012





000
SAUS43 KDLH 161957
MTRGNA
METAR KGNA 161956Z AUTO 22008KT 06/M01 A3000 RMK AO1 SLP167
T00611006





000
SAUS43 KDLH 161957
MTRGNA
METAR KGNA 161956Z AUTO 22008KT 06/M01 A3000 RMK AO1 SLP167
T00611006





000
SAUS43 KDLH 161857
MTRGNA
METAR KGNA 161856Z AUTO 23006KT 05/00 A3001 RMK AO1 SLP172 T00500000





000
SAUS43 KDLH 161857
MTRGNA
METAR KGNA 161856Z AUTO 23006KT 05/00 A3001 RMK AO1 SLP172 T00500000





000
SAUS43 KDLH 161757
MTRGNA
METAR KGNA 161756Z AUTO 00000KT 05/M01 A3002 RMK AO1 SLP173
T00501006 10078 20033 58016





000
SAUS43 KDLH 161657
MTRGNA
METAR KGNA 161656Z AUTO 24003KT 06/M01 A3004 RMK AO1 SLP179
T00561011





000
SAUS43 KDLH 161657
MTRGNA
METAR KGNA 161656Z AUTO 24003KT 06/M01 A3004 RMK AO1 SLP179
T00561011





000
SAUS43 KDLH 161557
MTRGNA
METAR KGNA 161556Z AUTO 20003KT 06/M01 A3005 RMK AO1 SLP184
T00561011





    US Dept of Commerce
    National Oceanic and Atmospheric Administration
    National Weather Service
    1325 East West Highway
    Silver Spring, MD 20910
    Page Author: NWS Internet Services Team
Disclaimer
Information Quality
Credits
Glossary
Privacy Policy
Freedom of Information Act (FOIA)
About Us
Career Opportunities